KVBG/VBG METAR and TAF weather

Enter ICAO airport designator
Station Type Date Time Source
KVBG METAR 2020/09/20 02:13 UTC NOAA

KVBG 200213Z AUTO 34008KT 3/4SM R30/5500FT BR CLR 14/14 A2989 RMK AO2 SLP125 $


Station Type Date Time Source
KVBG Decoded METAR 2020/09/20 02:13 UTC NOAA

Lompoc, Vandenberg Air Force Base, CA, United States (KVBG) 34-43-46N 120-34-36W 121M
Sep 19, 2020 - 10:13 PM EDT / 2020.09.20 0213 UTC
Wind: from the NNW (340 degrees) at 9 MPH (8 KT):0
Visibility: 3/4 mile(s):0
Sky conditions: clear
Weather: mist
Temperature: 57 F (14 C)
Dew Point: 57 F (14 C)
Relative Humidity: 100%
Pressure (altimeter): 29.89 in. Hg (1012 hPa)
ob: KVBG 200213Z AUTO 34008KT 3/4SM R30/5500FT BR CLR 14/14 A2989 RMK AO2 SLP125
cycle: 2

Station Type Date Time Source
KVBG TAF 2020/09/18 22:31 UTC NOAA

TAF KVBG 182215Z 1822/2004 34014KT 9999 FEW005 BKN140 BKN200 QNH2995INS
BECMG 1904/1905 35008KT 3200 BR BKN004 QNH2994INS
BECMG 1905/1906 35007KT 0800 BR VV001 QNH2996INS
BECMG 1907/1908 36006KT 0400 FG VV001 QNH2997INS
BECMG 1914/1915 36006KT 1200 BR OVC002 QNH2999INS
BECMG 1916/1917 35009KT 4800 BR BKN004 QNH3000INS
BECMG 1917/1918 35009KT 9999 NSW SCT006 QNH3000INS
BECMG 1919/1920 34012G20KT 9999 NSW SCT007 510005 QNH2997INS
BECMG 2002/2003 35009KT 4800 BR SCT006 QNH2998INS TX21/1822Z TN12/1914Z LAST NO
AMDS AFT 1900 NEXT 2114

Example: see airport list